Date,TemperatureHighF,TemperatureAvgF,TemperatureLowF,DewpointHighF,DewpointAvgF,DewpointLowF,HumidityHigh,HumidityAvg,HumidityLow,PressureMaxIn,PressureMinIn,WindSpeedMaxMPH,WindSpeedAvgMPH,GustSpeedMaxMPH,PrecipitationSumIn
2013-9-1,66.0,56.7,46.9,54.0,33.4,-76.0,99,62,2,30.50,30.40,5,2,10,0.00
2013-9-2,71.1,61.6,52.2,63.8,43.4,-24.7,99,67,2,30.42,30.36,5,2,11,0.00
2013-9-3,64.9,57.2,48.2,60.5,31.7,-76.0,99,65,8,30.36,30.23,4,1,7,0.00
2013-9-4,68.2,61.6,54.9,66.3,41.9,-37.3,99,73,1,30.21,29.97,6,2,8,0.00
2013-9-5,63.0,57.9,50.9,60.0,38.1,-26.5,99,62,3,30.04,29.98,4,2,6,0.00
2013-9-6,59.5,53.3,48.7,52.4,23.0,-76.0,99,54,8,29.99,29.90,6,3,9,0.00
2013-9-7,57.4,51.7,46.6,53.3,15.1,-76.0,99,49,2,30.00,29.95,6,3,8,0.03
2013-9-8,60.3,54.9,49.5,60.0,54.6,49.2,99,99,99,30.00,29.91,4,2,8,0.05
2013-9-9,64.9,58.0,52.3,63.9,44.7,-76.0,99,87,1,30.28,29.94,5,2,11,0.00
2013-9-10,60.6,56.2,50.0,55.5,19.1,-76.0,99,49,2,30.38,30.29,6,3,9,0.00
2013-9-11,70.2,62.2,55.9,62.5,28.4,-76.0,99,54,2,30.36,30.21,7,4,14,0.00
2013-9-12,69.6,64.6,60.8,68.2,29.1,-76.0,99,70,1,30.20,30.08,5,3,10,0.00
2013-9-13,59.5,56.1,53.2,58.0,50.2,-76.0,99,95,99,30.14,30.09,3,1,7,0.14
2013-9-14,61.7,55.4,50.5,61.4,55.2,50.3,99,99,99,30.18,30.06,3,2,5,0.00
2013-9-15,63.9,57.8,51.3,63.6,44.5,-13.1,99,74,6,30.07,29.70,10,6,15,0.03
2013-9-16,57.0,52.1,48.9,53.1,-7.4,-76.0,99,28,2,29.81,29.73,9,5,18,0.05
2013-9-17,65.7,58.6,51.4,63.9,30.4,-76.0,99,64,3,29.75,29.52,11,5,16,0.00
2013-9-18,60.1,54.1,47.7,55.7,28.1,-76.0,99,66,2,29.95,29.59,5,2,11,0.03
2013-9-19,63.9,58.1,49.3,60.7,36.8,-76.0,99,65,5,30.02,29.70,8,4,11,0.03
2013-9-20,63.9,57.3,49.8,60.0,30.3,-76.0,99,63,1,30.09,30.00,5,2,9,0.00
2013-9-21,70.0,62.6,56.8,69.7,62.3,56.6,99,99,99,30.24,30.03,4,2,7,0.00
2013-9-22,67.8,62.5,59.5,67.5,62.2,59.3,99,99,99,30.29,30.22,7,3,10,0.00
2013-9-23,61.3,59.9,58.6,61.1,59.6,58.4,99,99,99,30.21,29.97,7,5,11,0.00
2013-9-24,63.3,60.7,58.3,63.0,60.4,58.0,99,99,99,29.96,29.87,5,2,8,0.00
2013-9-25,61.3,60.0,59.4,61.1,59.8,59.1,99,99,99,29.87,29.79,3,2,6,0.05
2013-9-26,63.9,60.7,58.1,63.6,60.4,57.8,99,99,99,29.94,29.82,4,2,6,0.00
2013-9-27,62.2,60.3,57.9,62.0,60.0,57.6,99,99,99,29.91,29.77,5,3,9,0.00
2013-9-28,59.9,59.3,57.7,59.6,59.0,57.5,99,99,99,29.76,29.64,5,4,9,0.03
2013-9-29,59.5,58.5,57.6,59.3,58.3,57.3,99,99,99,29.66,29.58,4,3,10,0.16
2013-9-30,60.6,59.7,58.8,60.3,59.4,58.5,99,99,99,29.57,29.51,7,5,15,0.24